Ingomar, PA (15127)

2:52 PM EDT on August 22, 2017 (GMT -0400)
Field Club Estates | | Change Station
Active Advisory: Severe Thunderstorm Watch

Elev 1207 ft 40.56 °N, 80.07 °W | Updated 2 seconds ago

Rain
Rain
78.1 °F
Feels Like 81 °F
N
1.3
Wind Variable Wind from South
Gusts 4.0 mph

Today
High -- | Low -- °F
--% Chance of Precip.
Yesterday
High -- | Low -- °F
Precip. -- in
Pressure 29.89 in
Visibility 9.0 miles
Clouds Few 1200 ft
Mostly Cloudy 3400 ft
Mostly Cloudy 8500 ft
Mostly Cloudy 25000 ft
Heat Index 81 °F
Dew Point 72 °F
Humidity 82%
Rainfall 0.00 in
Snow Depth Not available.
6:37 AM 8:07 PM
New Moon, 1% visible
METAR KPIT 221751Z 21014KT 9SM -TSRA FEW012 BKN034CB BKN085 BKN250 26/22 A2990 RMK AO2 LTG DSNT ALQDS RAB19 TSB24 SLP122 OCNL LTGCGCC VC SE-SW TS VC SE-SW MOV NE P0000 60000 T02560222 10294 20228 56020
Pressure 29.89 in
Visibility 9.0 miles
Clouds Few 1200 ft
Mostly Cloudy 3400 ft
Mostly Cloudy 8500 ft
Mostly Cloudy 25000 ft
Heat Index 81 °F
Dew Point 72 °F
Humidity 82%
Rainfall 0.00 in
Snow Depth Not available.
6:37 AM 8:07 PM
New Moon, 1% visible
METAR KPIT 221751Z 21014KT 9SM -TSRA FEW012 BKN034CB BKN085 BKN250 26/22 A2990 RMK AO2 LTG DSNT ALQDS RAB19 TSB24 SLP122 OCNL LTGCGCC VC SE-SW TS VC SE-SW MOV NE P0000 60000 T02560222 10294 20228 56020

Get Your Daily Forecast Email!

Thanks for signing up!

Be on the lookout for a verification email in your inbox.

You'll start receiving severe weather alerts in your inbox..

×

10-Day Weather Forecast

Almanac

Astronomy

Aug. 22, 2017 Rise Set
Actual Time
Civil Twilight
Nautical Twilight
Astronomical Twilight
Moon
Length of Visible Light
Length of Day
Tomorrow will be .
, % of the Moon is Illuminated

Today's Extremes

State Highs State Lows

Community

WunderPhotos

Category 6

Welcome to Category 6. This is the collective home for Weather Underground's featured writeups by Dr. Jeff Masters (right), Bob Henson (left), Chris Burt, and other regular contributors.

Nearby

Air Quality

  Air Quality AQ Index Pollutant
Not available.

Snow Depth

Station Depth Elevation

Earthquake Activity

City Distance Mag. Time & Date
Minimum magnitude displayed is 2.5.

Coastal Water Temperatures

Place Temperature

Stations

Nearby Weather Stations

Station Location Temp. Windchill Dew Point Humidity Wind Precip. Elev Updated Type
                   

Watches & Warnings

Severe Thunderstorm Watch
Issued: 2:43 PM EDT Aug. 22, 2017 – National Weather Service

Severe Thunderstorm Watch 462 remains in effect until 900 PM EDT

PA
. Pennsylvania counties included are

Allegheny Armstrong Beaver
Bedford Blair Butler
Cambria centre Clarion
Clearfield Fayette Forest
Greene Huntingdon Indiana
Jefferson Lawrence Mercer
Somerset Venango Washington
Westmoreland